UKBB/KBP METAR and TAF weather

Enter ICAO airport designator
Station Type Date Time Source
UKBB METAR 2022/01/29 02:00 UTC NOAA

UKBB 290200Z 29005MPS 9999 -SN SCT009 OVC014 01/M00 Q1005 TEMPO 31009G15MPS 2100 -SHSN BKN003 SCT012CB


Station Type Date Time Source
UKBB Decoded METAR 2022/01/29 02:00 UTC NOAA

Boryspil, Ukraine (UKBB) 50-20N 030-58E 122M
Jan 28, 2022 - 09:00 PM EST / 2022.01.29 0200 UTC
Wind: from the WNW (290 degrees) at 11 MPH (10 KT):0
Visibility: greater than 7 mile(s):0
Sky conditions: overcast
Weather: light snow; Cumulonimbus clouds observed
Temperature: 33 F (1 C)
Windchill: 24 F (-4 C):1
Dew Point: 32 F (0 C)
Relative Humidity: 93%
Pressure (altimeter): 29.68 in. Hg (1005 hPa)
ob: UKBB 290200Z 29005MPS 9999 -SN SCT009 OVC014 01/M00 Q1005 TEMPO 31009G15MPS 2100 -SHSN BKN003 SCT012CB
cycle: 2

Station Type Date Time Source
UKBB TAF 2022/01/28 18:24 UTC NOAA

TAF TAF UKBB 281706Z 2818/2918 22006G12MPS 6000 OVC006 TX01/2818Z TNM03/2918Z
TEMPO 2818/2824 26008G14MPS 1000 SHSNRA BR BKN004 BKN012CB
BECMG 2900/2901 29008G14MPS
TEMPO 2901/2914 31010G16MPS 0700 +SHSN BLSN BKN003 BKN012CB

Example: see airport list